createdAt,value
2023-06-21T00:00:48.203Z,8.60
2023-06-21T00:03:16.382Z,7.13
2023-06-21T00:05:44.288Z,8.80
2023-06-21T00:08:14.087Z,10.00
2023-06-21T00:10:41.943Z,12.02
2023-06-21T00:13:09.835Z,12.50
2023-06-21T00:15:38.328Z,12.43
2023-06-21T00:18:06.200Z,12.90
2023-06-21T00:20:34.240Z,9.55
2023-06-21T00:23:01.982Z,10.52
2023-06-21T00:25:31.184Z,13.50
2023-06-21T00:27:58.989Z,11.43
2023-06-21T00:30:26.997Z,6.97
2023-06-21T00:32:55.365Z,9.05
2023-06-21T00:35:23.198Z,12.75
2023-06-21T00:37:50.996Z,8.60
2023-06-21T00:40:23.222Z,7.13
2023-06-21T00:42:52.618Z,9.80
2023-06-21T00:45:20.476Z,8.88
2023-06-21T00:47:49.087Z,11.23
2023-06-21T00:50:17.212Z,13.83
2023-06-21T00:52:45.207Z,11.73
2023-06-21T00:55:14.690Z,8.88
2023-06-21T00:57:45.359Z,8.82
2023-06-21T01:00:18.622Z,8.63
2023-06-21T01:02:47.678Z,9.30
2023-06-21T01:05:17.902Z,12.60
2023-06-21T01:08:01.586Z,12.80
2023-06-21T01:10:45.440Z,10.30
2023-06-21T01:13:25.939Z,11.48
2023-06-21T01:16:04.166Z,13.23
2023-06-21T01:18:35.911Z,11.75
2023-06-21T01:21:06.026Z,10.52
2023-06-21T01:24:14.674Z,10.10
2023-06-21T01:27:07.800Z,9.37
2023-06-21T01:29:40.797Z,9.77
2023-06-21T01:32:14.301Z,9.93
2023-06-21T01:34:43.006Z,7.60
2023-06-21T01:37:10.790Z,9.13
2023-06-21T01:39:38.873Z,9.70
2023-06-21T01:42:07.732Z,8.68
2023-06-21T01:44:37.521Z,8.25
2023-06-21T01:47:06.248Z,8.52
2023-06-21T01:49:35.629Z,9.55
2023-06-21T01:52:06.217Z,8.57
2023-06-21T01:54:35.423Z,9.57
2023-06-21T01:57:08.344Z,8.38
2023-06-21T01:59:37.815Z,7.63
2023-06-21T02:02:07.803Z,7.47
2023-06-21T02:04:36.623Z,7.60
2023-06-21T02:07:05.997Z,9.05
2023-06-21T02:09:34.426Z,9.13
2023-06-21T02:12:02.813Z,6.35
2023-06-21T02:14:33.244Z,8.60
2023-06-21T02:17:05.152Z,7.80
2023-06-21T02:19:32.966Z,9.17
2023-06-21T02:22:00.847Z,8.57
2023-06-21T02:24:28.762Z,8.33
2023-06-21T02:26:56.582Z,11.15
2023-06-21T02:29:24.393Z,9.80
2023-06-21T02:31:52.243Z,10.82
2023-06-21T02:34:21.636Z,10.85
2023-06-21T02:36:54.627Z,11.15
2023-06-21T02:39:23.334Z,12.40
2023-06-21T02:41:51.612Z,12.23
2023-06-21T02:44:19.714Z,11.57
2023-06-21T02:46:47.553Z,11.50
2023-06-21T02:49:15.381Z,12.27
2023-06-21T02:51:46.477Z,12.80
2023-06-21T02:54:16.765Z,11.40
2023-06-21T02:56:44.851Z,11.10
2023-06-21T02:59:13.221Z,11.75
2023-06-21T03:01:41.054Z,9.25
2023-06-21T03:04:09.003Z,9.05
2023-06-21T03:06:36.859Z,7.90
2023-06-21T03:09:06.783Z,10.45
2023-06-21T03:11:34.623Z,10.15
2023-06-21T03:14:02.655Z,9.13
2023-06-21T03:16:31.196Z,10.55
2023-06-21T03:18:59.282Z,7.80
2023-06-21T03:21:29.637Z,12.00
2023-06-21T03:23:57.607Z,8.02
2023-06-21T03:26:26.845Z,6.18
2023-06-21T03:28:58.602Z,9.13
2023-06-21T03:31:26.590Z,9.32
2023-06-21T03:33:54.936Z,8.90
2023-06-21T03:36:23.242Z,8.45
2023-06-21T03:38:51.265Z,10.80
2023-06-21T03:41:19.293Z,8.85
2023-06-21T03:43:48.621Z,6.43
2023-06-21T03:46:16.803Z,10.40
2023-06-21T03:48:44.876Z,11.20
2023-06-21T03:51:12.778Z,11.95
2023-06-21T03:53:41.287Z,14.68
2023-06-21T03:56:11.071Z,14.55
2023-06-21T03:58:38.937Z,10.83
2023-06-21T04:01:08.142Z,9.63
2023-06-21T04:03:36.101Z,11.13
2023-06-21T04:06:04.969Z,11.10
2023-06-21T04:08:33.145Z,9.10
2023-06-21T04:11:01.282Z,8.93
2023-06-21T04:13:29.175Z,11.88
2023-06-21T04:15:57.320Z,12.27
2023-06-21T04:18:26.481Z,7.00
2023-06-21T04:20:54.954Z,10.30
2023-06-21T04:23:22.924Z,7.63
2023-06-21T04:25:51.330Z,11.32
2023-06-21T04:28:26.145Z,9.80
2023-06-21T04:30:56.138Z,5.97
2023-06-21T04:33:24.506Z,6.60
2023-06-21T04:35:53.657Z,8.20
2023-06-21T04:38:21.440Z,5.40
2023-06-21T04:40:49.221Z,6.75
2023-06-21T04:43:17.019Z,5.55
2023-06-21T04:45:49.677Z,9.07
2023-06-21T04:48:17.503Z,7.43
2023-06-21T04:50:46.232Z,9.68
2023-06-21T04:53:15.907Z,6.60
2023-06-21T04:55:44.050Z,10.13
2023-06-21T04:58:13.611Z,8.18
2023-06-21T05:00:41.475Z,7.70
2023-06-21T05:03:09.589Z,8.10
2023-06-21T05:05:37.448Z,7.22
2023-06-21T05:08:07.238Z,7.73
2023-06-21T05:10:36.656Z,8.40
2023-06-21T05:13:04.602Z,9.38
2023-06-21T05:15:32.423Z,9.52
2023-06-21T05:18:00.590Z,9.23
2023-06-21T05:20:30.729Z,8.30
2023-06-21T05:23:00.916Z,6.03
2023-06-21T05:25:31.371Z,8.00
2023-06-21T05:28:00.514Z,9.57
2023-06-21T05:30:28.610Z,7.77
2023-06-21T05:32:56.829Z,7.10
2023-06-21T05:35:25.015Z,7.22
2023-06-21T05:37:55.161Z,7.90
2023-06-21T05:40:23.209Z,6.28
2023-06-21T05:42:51.165Z,9.45
2023-06-21T05:45:23.906Z,7.88
2023-06-21T05:47:51.699Z,8.25
2023-06-21T05:50:19.535Z,6.20
2023-06-21T05:52:47.379Z,8.90
2023-06-21T05:55:18.454Z,7.72
2023-06-21T05:57:46.520Z,6.53
2023-06-21T06:00:15.415Z,5.83
2023-06-21T06:02:44.584Z,7.28
2023-06-21T06:05:12.834Z,8.80
2023-06-21T06:07:40.679Z,7.18
2023-06-21T06:10:09.172Z,9.90
2023-06-21T06:12:37.117Z,12.07
2023-06-21T06:15:05.653Z,9.38
2023-06-21T06:17:33.519Z,10.85
2023-06-21T06:20:06.929Z,6.30
2023-06-21T06:22:52.274Z,8.93
2023-06-21T06:25:20.538Z,6.75
2023-06-21T06:27:48.377Z,8.05
2023-06-21T06:30:16.290Z,8.13
2023-06-21T06:32:44.244Z,9.15
2023-06-21T06:35:13.526Z,8.43
2023-06-21T06:37:41.361Z,9.43
2023-06-21T06:40:10.148Z,6.20
2023-06-21T06:42:39.623Z,10.82
2023-06-21T06:45:10.668Z,9.35
2023-06-21T06:47:38.696Z,10.68
2023-06-21T06:50:08.392Z,10.47
2023-06-21T06:52:37.562Z,10.82
2023-06-21T06:55:06.262Z,10.15
2023-06-21T06:57:38.151Z,9.15
2023-06-21T07:00:12.862Z,10.18
2023-06-21T07:02:40.976Z,9.57
2023-06-21T07:05:09.518Z,9.50
2023-06-21T07:07:38.915Z,10.38
2023-06-21T07:10:07.624Z,9.27
2023-06-21T07:12:35.503Z,8.77
2023-06-21T07:15:03.340Z,10.50
2023-06-21T07:17:31.208Z,8.80
2023-06-21T07:19:59.102Z,7.77
2023-06-21T07:22:26.885Z,10.23
2023-06-21T07:24:56.088Z,8.85
2023-06-21T07:27:24.077Z,9.77
2023-06-21T07:29:52.068Z,9.30
2023-06-21T07:32:19.863Z,8.75
2023-06-21T07:34:47.676Z,7.00
2023-06-21T07:37:15.515Z,6.57
2023-06-21T07:39:53.494Z,6.23
2023-06-21T07:42:24.054Z,7.55
2023-06-21T07:44:53.608Z,5.47
2023-06-21T07:47:21.798Z,5.90
2023-06-21T07:49:57.950Z,4.65
2023-06-21T07:52:29.211Z,6.30
2023-06-21T07:54:56.961Z,6.53
2023-06-21T07:57:26.176Z,5.75
2023-06-21T07:59:53.950Z,5.03
2023-06-21T08:02:22.255Z,4.88
2023-06-21T08:04:50.221Z,4.78
2023-06-21T08:07:18.187Z,5.68
2023-06-21T08:09:46.077Z,5.78
2023-06-21T08:12:14.268Z,4.10
2023-06-21T08:14:43.538Z,4.88
2023-06-21T08:17:11.341Z,5.10
2023-06-21T08:19:39.166Z,5.60
2023-06-21T08:22:06.980Z,4.93
2023-06-21T08:24:35.446Z,5.35
2023-06-21T08:27:03.250Z,4.43
2023-06-21T08:29:31.155Z,3.70
2023-06-21T08:32:00.483Z,5.10
2023-06-21T08:34:28.436Z,5.22
2023-06-21T08:36:56.213Z,4.32
2023-06-21T08:39:24.092Z,5.65
2023-06-21T08:41:52.048Z,4.33
2023-06-21T08:44:19.869Z,4.75
2023-06-21T08:46:50.381Z,6.17
2023-06-21T08:49:22.826Z,4.47
2023-06-21T08:51:52.522Z,5.27
2023-06-21T08:54:26.430Z,3.33
2023-06-21T08:56:58.108Z,3.90
2023-06-21T08:59:30.911Z,3.97
2023-06-21T09:02:06.871Z,3.55
2023-06-21T09:04:45.367Z,5.45
2023-06-21T09:07:14.784Z,3.95
2023-06-21T09:09:44.618Z,3.72
2023-06-21T09:12:16.828Z,5.80
2023-06-21T09:14:45.187Z,4.53
2023-06-21T09:17:13.866Z,6.05
2023-06-21T09:19:44.160Z,4.17
2023-06-21T09:22:14.292Z,5.78
2023-06-21T09:24:45.826Z,6.93
2023-06-21T09:27:13.800Z,5.15
2023-06-21T09:29:42.024Z,6.28
2023-06-21T09:32:10.021Z,4.63
2023-06-21T09:34:38.412Z,6.20
2023-06-21T09:37:07.828Z,5.10
2023-06-21T09:39:35.683Z,4.18
2023-06-21T09:42:03.725Z,8.52
2023-06-21T09:44:36.213Z,6.40
2023-06-21T09:47:06.078Z,5.78
2023-06-21T09:49:36.370Z,6.50
2023-06-21T09:52:04.416Z,6.95
2023-06-21T09:54:47.106Z,8.57
2023-06-21T09:57:17.636Z,6.05
2023-06-21T09:59:50.721Z,5.03
2023-06-21T10:02:18.590Z,6.13
2023-06-21T10:04:46.757Z,4.35
2023-06-21T10:07:15.873Z,3.92
2023-06-21T10:09:45.088Z,4.23
2023-06-21T10:12:13.837Z,8.10
2023-06-21T10:14:41.896Z,6.78
2023-06-21T10:17:13.352Z,4.53
2023-06-21T10:19:45.580Z,3.43
2023-06-21T10:22:19.128Z,8.52
2023-06-21T10:24:52.133Z,4.20
2023-06-21T10:27:21.361Z,4.38
2023-06-21T10:29:57.531Z,5.40
2023-06-21T10:32:26.453Z,8.70
2023-06-21T10:34:59.955Z,5.20
2023-06-21T10:37:34.549Z,7.93
2023-06-21T10:40:26.446Z,4.30
2023-06-21T10:42:57.190Z,5.35
2023-06-21T10:45:30.037Z,6.45
2023-06-21T10:47:58.931Z,5.05
2023-06-21T10:50:27.451Z,4.53
2023-06-21T10:52:57.037Z,5.82
2023-06-21T10:55:34.618Z,4.78
2023-06-21T10:58:04.586Z,7.22
2023-06-21T11:00:33.031Z,5.30
2023-06-21T11:03:01.220Z,6.40
2023-06-21T11:05:35.919Z,4.43
2023-06-21T11:08:06.356Z,5.47
2023-06-21T11:10:43.929Z,5.23
2023-06-21T11:13:13.196Z,7.93
2023-06-21T11:15:44.667Z,5.53
2023-06-21T11:18:19.892Z,5.37
2023-06-21T11:20:49.745Z,8.27
2023-06-21T11:23:19.138Z,7.22
2023-06-21T11:25:59.344Z,6.82
2023-06-21T11:28:33.551Z,7.70
2023-06-21T11:31:09.741Z,5.68
2023-06-21T11:33:52.980Z,6.25
2023-06-21T11:36:23.190Z,6.20
2023-06-21T11:38:53.926Z,8.97
2023-06-21T11:42:05.425Z,7.22
2023-06-21T11:44:34.248Z,8.15
2023-06-21T11:47:19.120Z,8.05
2023-06-21T11:49:52.250Z,6.82
2023-06-21T11:52:33.313Z,7.87
2023-06-21T11:55:12.794Z,7.15
2023-06-21T11:57:46.355Z,8.05
2023-06-21T12:00:17.097Z,8.00
2023-06-21T12:02:44.980Z,8.43
2023-06-21T12:05:12.964Z,8.77
2023-06-21T12:07:43.043Z,7.23
2023-06-21T12:10:13.603Z,7.40
2023-06-21T12:12:41.454Z,8.40
2023-06-21T12:15:11.654Z,6.33
2023-06-21T12:17:39.567Z,6.78
2023-06-21T12:20:09.804Z,7.57
2023-06-21T12:22:37.807Z,6.50
2023-06-21T12:25:06.950Z,8.50
2023-06-21T12:27:34.934Z,7.78
2023-06-21T12:30:04.203Z,8.95
2023-06-21T12:32:37.899Z,8.48
2023-06-21T12:35:08.212Z,7.57
2023-06-21T12:37:36.236Z,7.75
2023-06-21T12:40:06.821Z,8.03
2023-06-21T12:42:34.672Z,7.60
2023-06-21T12:45:02.656Z,9.00
2023-06-21T12:47:30.530Z,8.20
2023-06-21T12:50:02.826Z,9.02
2023-06-21T12:52:30.660Z,8.25
2023-06-21T12:54:58.800Z,8.32
2023-06-21T12:57:28.214Z,8.25
2023-06-21T12:59:56.118Z,7.97
2023-06-21T13:02:27.832Z,9.68
2023-06-21T13:04:57.367Z,10.20
2023-06-21T13:07:26.722Z,9.33
2023-06-21T13:09:54.832Z,7.80
2023-06-21T13:12:25.196Z,7.35
2023-06-21T13:14:53.101Z,6.63
2023-06-21T13:17:21.923Z,7.68
2023-06-21T13:19:49.885Z,9.17
2023-06-21T13:22:17.617Z,7.97
2023-06-21T13:24:47.022Z,5.47
2023-06-21T13:27:14.832Z,7.80
2023-06-21T13:29:42.692Z,7.63
2023-06-21T13:32:10.584Z,7.00
2023-06-21T13:34:38.480Z,6.43
2023-06-21T13:37:06.625Z,8.20
2023-06-21T13:39:35.587Z,6.63
2023-06-21T13:42:05.206Z,6.90
2023-06-21T13:44:33.089Z,7.93
2023-06-21T13:47:00.999Z,8.10
2023-06-21T13:49:28.832Z,6.15
2023-06-21T13:51:56.990Z,6.90
2023-06-21T13:54:25.542Z,7.55
2023-06-21T13:56:55.273Z,7.68
2023-06-21T13:59:24.550Z,8.02
2023-06-21T14:01:52.375Z,6.93
2023-06-21T14:04:20.257Z,6.22
2023-06-21T14:06:48.217Z,7.60
2023-06-21T14:09:16.073Z,7.47
2023-06-21T14:11:43.933Z,8.00
2023-06-21T14:14:11.816Z,6.10
2023-06-21T14:16:41.087Z,6.20
2023-06-21T14:19:08.960Z,6.28
2023-06-21T14:21:36.845Z,7.47
2023-06-21T14:24:05.257Z,6.20
2023-06-21T14:26:33.481Z,7.13
2023-06-21T14:29:01.283Z,7.97
2023-06-21T14:31:30.775Z,5.57
2023-06-21T14:34:00.058Z,4.90
2023-06-21T14:36:28.447Z,6.38
2023-06-21T14:38:56.431Z,8.38
2023-06-21T14:41:25.812Z,7.50
2023-06-21T14:43:53.795Z,6.13
2023-06-21T14:46:21.717Z,6.50
2023-06-21T14:48:53.631Z,6.20
2023-06-21T14:51:23.923Z,6.25
2023-06-21T14:53:51.991Z,6.93
2023-06-21T14:56:19.876Z,6.63
2023-06-21T14:58:48.978Z,6.30
2023-06-21T15:01:19.100Z,5.88
2023-06-21T15:03:47.894Z,6.80
2023-06-21T15:06:15.931Z,5.70
2023-06-21T15:08:46.344Z,5.57
2023-06-21T15:11:14.263Z,5.28
2023-06-21T15:13:44.015Z,5.47
2023-06-21T15:16:12.585Z,5.30
2023-06-21T15:18:40.641Z,5.97
2023-06-21T15:21:08.699Z,5.32
2023-06-21T15:23:36.556Z,5.25
2023-06-21T15:26:05.906Z,6.78
2023-06-21T15:28:34.897Z,5.78
2023-06-21T15:31:04.285Z,7.10
2023-06-21T15:33:32.352Z,5.95
2023-06-21T15:36:00.366Z,5.00
2023-06-21T15:38:28.163Z,5.78
2023-06-21T15:40:57.785Z,4.50
2023-06-21T15:43:31.199Z,5.28
2023-06-21T15:45:59.542Z,5.40
2023-06-21T15:48:27.448Z,5.93
2023-06-21T15:50:55.695Z,6.13
2023-06-21T15:53:23.556Z,4.53
2023-06-21T15:55:51.501Z,5.60
2023-06-21T15:58:19.638Z,5.63
2023-06-21T16:00:48.864Z,5.05
2023-06-21T16:03:16.845Z,5.78
2023-06-21T16:05:44.848Z,6.50
2023-06-21T16:08:12.646Z,4.80
2023-06-21T16:10:40.477Z,5.38
2023-06-21T16:13:08.831Z,4.53
2023-06-21T16:15:38.102Z,5.00
2023-06-21T16:18:07.500Z,5.15
2023-06-21T16:20:35.403Z,4.90
2023-06-21T16:23:03.172Z,5.63
2023-06-21T16:25:33.365Z,5.03
2023-06-21T16:28:01.142Z,4.65
2023-06-21T16:30:28.954Z,5.05
2023-06-21T16:32:57.811Z,6.30
2023-06-21T16:35:27.556Z,6.78
2023-06-21T16:37:55.704Z,6.53
2023-06-21T16:40:23.522Z,5.27
2023-06-21T16:42:51.400Z,3.67
2023-06-21T16:45:24.135Z,5.53
2023-06-21T16:47:52.849Z,5.25
2023-06-21T16:50:21.028Z,5.47
2023-06-21T16:52:50.232Z,6.28
2023-06-21T16:55:20.230Z,5.28
2023-06-21T16:57:48.476Z,7.72
2023-06-21T17:00:17.287Z,6.47
2023-06-21T17:02:47.563Z,7.20
2023-06-21T17:05:15.592Z,6.07
2023-06-21T17:07:43.514Z,5.60
2023-06-21T17:10:12.787Z,4.78
2023-06-21T17:12:40.697Z,5.20
2023-06-21T17:15:09.806Z,4.47
2023-06-21T17:17:37.720Z,3.72
2023-06-21T17:20:09.603Z,4.30
2023-06-21T17:22:37.930Z,4.90
2023-06-21T17:25:06.803Z,4.88
2023-06-21T17:27:36.091Z,6.05
2023-06-21T17:30:04.818Z,4.68
2023-06-21T17:32:32.943Z,5.83
2023-06-21T17:35:03.271Z,4.50
2023-06-21T17:37:31.107Z,4.80
2023-06-21T17:39:58.987Z,5.37
2023-06-21T17:42:30.143Z,4.05
2023-06-21T17:45:00.593Z,3.50
2023-06-21T17:47:33.467Z,4.77
2023-06-21T17:50:01.359Z,4.95
2023-06-21T17:52:32.146Z,4.93
2023-06-21T17:55:00.220Z,4.70
2023-06-21T17:57:28.044Z,4.05
2023-06-21T17:59:55.942Z,5.40
2023-06-21T18:02:28.395Z,5.57
2023-06-21T18:04:56.527Z,6.38
2023-06-21T18:07:24.669Z,3.83
2023-06-21T18:09:52.806Z,4.75
2023-06-21T18:12:21.357Z,5.03
2023-06-21T18:14:49.231Z,5.70
2023-06-21T18:17:17.747Z,4.47
2023-06-21T18:19:49.010Z,4.35
2023-06-21T18:22:19.673Z,5.63
2023-06-21T18:24:51.836Z,10.02
2023-06-21T18:27:19.678Z,9.82
2023-06-21T18:32:23.653Z,7.93
2023-06-21T18:34:52.804Z,6.63
2023-06-21T18:37:20.749Z,6.60
2023-06-21T18:39:50.423Z,6.70
2023-06-21T18:42:18.244Z,6.30
2023-06-21T18:44:47.442Z,6.05
2023-06-21T18:47:15.300Z,6.53
2023-06-21T18:49:43.350Z,5.47
2023-06-21T18:52:12.584Z,5.63
2023-06-21T18:54:40.524Z,5.75
2023-06-21T18:57:09.029Z,5.13
2023-06-21T18:59:37.792Z,5.50
2023-06-21T19:02:06.299Z,6.15
2023-06-21T19:04:37.070Z,5.30
2023-06-21T19:07:06.063Z,5.35
2023-06-21T19:09:35.306Z,5.80
2023-06-21T19:12:03.120Z,5.72
2023-06-21T19:14:33.879Z,5.93
2023-06-21T19:17:01.729Z,6.43
2023-06-21T19:19:29.545Z,6.45
2023-06-21T19:21:57.394Z,5.93
2023-06-21T19:24:25.198Z,6.97
2023-06-21T19:26:54.349Z,6.82
2023-06-21T19:29:22.113Z,6.63
2023-06-21T19:31:51.540Z,4.32
2023-06-21T19:34:19.432Z,6.35
2023-06-21T19:36:47.247Z,5.63
2023-06-21T19:39:15.127Z,5.38
2023-06-21T19:41:42.969Z,6.20
2023-06-21T19:44:12.215Z,7.03
2023-06-21T19:46:40.726Z,5.80
2023-06-21T19:49:08.721Z,8.43
2023-06-21T19:51:36.485Z,10.30
2023-06-21T19:54:04.435Z,7.00
2023-06-21T19:56:32.218Z,6.25
2023-06-21T19:59:00.051Z,6.60
2023-06-21T20:01:29.320Z,5.47
2023-06-21T20:03:57.220Z,6.28
2023-06-21T20:06:24.994Z,6.03
2023-06-21T20:08:52.787Z,6.28
2023-06-21T20:11:20.583Z,5.57
2023-06-21T20:13:48.431Z,5.17
2023-06-21T20:16:16.234Z,6.00
2023-06-21T20:18:47.715Z,6.22
2023-06-21T20:21:15.550Z,7.67
2023-06-21T20:23:44.539Z,6.53
2023-06-21T20:26:14.705Z,6.93
2023-06-21T20:28:42.552Z,6.65
2023-06-21T20:31:10.406Z,6.83
2023-06-21T20:33:38.231Z,7.00
2023-06-21T20:36:07.982Z,7.13
2023-06-21T20:38:37.044Z,8.40
2023-06-21T20:41:07.359Z,8.50
2023-06-21T20:43:36.690Z,8.80
2023-06-21T20:46:05.111Z,8.17
2023-06-21T20:48:33.051Z,8.20
2023-06-21T20:51:01.062Z,8.18
2023-06-21T20:53:33.039Z,9.10
2023-06-21T20:56:01.591Z,8.75
2023-06-21T20:58:30.150Z,7.70
2023-06-21T21:00:58.274Z,9.57
2023-06-21T21:03:28.196Z,10.20
2023-06-21T21:05:56.383Z,8.82
2023-06-21T21:08:24.218Z,9.20
2023-06-21T21:10:53.446Z,9.65
2023-06-21T21:13:28.538Z,9.32
2023-06-21T21:15:58.584Z,7.47
2023-06-21T21:18:26.425Z,7.85
2023-06-21T21:20:54.238Z,7.60
2023-06-21T21:23:22.142Z,7.57
2023-06-21T21:25:50.149Z,4.10
2023-06-21T21:28:19.310Z,4.15
2023-06-21T21:30:48.670Z,5.70
2023-06-21T21:33:18.130Z,7.68
2023-06-21T21:35:46.239Z,8.00
2023-06-21T21:38:14.103Z,8.55
2023-06-21T21:40:41.950Z,8.43
2023-06-21T21:43:10.852Z,7.97
2023-06-21T21:45:40.151Z,6.53
2023-06-21T21:48:08.222Z,7.97
2023-06-21T21:50:37.388Z,5.55
2023-06-21T21:53:06.091Z,5.10
2023-06-21T21:55:33.898Z,8.77
2023-06-21T21:58:01.787Z,8.73
2023-06-21T22:00:29.904Z,9.45
2023-06-21T22:02:59.489Z,9.65
2023-06-21T22:05:29.674Z,8.45
2023-06-21T22:07:57.512Z,6.80
2023-06-21T22:10:37.670Z,5.68
2023-06-21T22:13:10.730Z,5.60
2023-06-21T22:15:52.334Z,9.52
2023-06-21T22:18:25.626Z,9.57
2023-06-21T22:20:55.822Z,9.30
2023-06-21T22:23:23.964Z,9.75
2023-06-21T22:25:51.962Z,8.93
2023-06-21T22:28:20.395Z,9.20
2023-06-21T22:30:48.281Z,7.03
2023-06-21T22:33:16.749Z,4.77
2023-06-21T22:35:46.266Z,6.90
2023-06-21T22:38:14.170Z,9.07
2023-06-21T22:40:42.033Z,6.20
2023-06-21T22:43:09.806Z,6.03
2023-06-21T22:45:42.186Z,6.55
2023-06-21T22:48:14.527Z,6.95
2023-06-21T22:50:43.893Z,5.30
2023-06-21T22:53:13.518Z,6.20
2023-06-21T22:55:43.564Z,7.22
2023-06-21T22:58:11.612Z,10.02
2023-06-21T23:00:39.632Z,9.38
2023-06-21T23:03:09.364Z,10.10
2023-06-21T23:05:37.465Z,9.90
2023-06-21T23:08:07.075Z,7.80
2023-06-21T23:10:36.359Z,9.70
2023-06-21T23:13:06.783Z,10.90
2023-06-21T23:15:35.551Z,10.80
2023-06-21T23:18:04.875Z,10.77
2023-06-21T23:20:37.938Z,11.90
2023-06-21T23:23:15.926Z,10.80
2023-06-21T23:25:47.688Z,10.70
2023-06-21T23:28:15.921Z,10.20
2023-06-21T23:30:44.480Z,10.77
2023-06-21T23:33:12.682Z,8.60
2023-06-21T23:35:41.033Z,6.97
2023-06-21T23:38:09.071Z,9.95
2023-06-21T23:40:37.682Z,10.52
2023-06-21T23:43:08.825Z,10.13
2023-06-21T23:45:39.763Z,10.40
2023-06-21T23:48:08.128Z,10.88
2023-06-21T23:50:36.216Z,9.43
2023-06-21T23:53:04.185Z,10.30
2023-06-21T23:55:32.230Z,10.27
2023-06-21T23:58:00.368Z,10.45
